Rechercher aéroport 
image banner adimage banner adimage banner ad
image banner ad

CL50 - Westwood Gateway

Situé à Los Angeles, United States

ICAO - CL50, IATA -

Données fournies par Airmate  

Information générale

Coordonnées: N34°2'52" W118°26'42"
Élévation : 321 feet MSL.
Variation magnétique : 14° East
Voir autres Aéroports à California

Données opérationnelles

Special qualification required
Heure actuelle UTC:
Heure actuelle locale:
Météo à : KSMO - Santa Monica Muni ( 4 km )
METAR: KSMO 292251Z 24010KT 10SM CLR 22/15 A2988 RMK AO2 SLP115 T02170150
TAF: KSMO 291736Z 2918/3018 21006KT P6SM SCT005 FM292000 23008KT P6SM SKC FM300400 VRB03KT P6SM SKC FM300900 VRB03KT P6SM OVC008
Voir NOTAMs / SUP AIP / TFR affectant cet aéroport [VIEW]
Fréquences de communication: [VIEW]

Pistes:

Coordonnées de l'aéroport

Adresse: Los Angeles United States

Vue satellite de CL50